Time;durP1;ratioP1;P1;durP2;ratioP2;P2;SDS_P1;SDS_P2;PMS_P1;PMS_P2;Temp;Humidity;BMP_temperature;BMP_pressure;BME280_temperature;BME280_humidity;BME280_pressure;Samples;Min_cycle;Max_cycle;Signal;HPM_P1;HPM_P2
2024/03/29 08:05:21;;;;;;;0.20;0.20;;;;;;;22.43;45.15;76304.06;4961784;23;20040;-90
2024/03/29 08:36:32;;;;;;;0.20;0.20;;;;;;;23.48;38.23;76428.72;4958095;23;20053;-90
2024/03/29 08:38:58;;;;;;;0.20;0.20;;;;;;;23.62;38.46;76444.38;4898101;29;20038;-91
2024/03/29 08:41:24;;;;;;;0.20;0.20;;;;;;;23.68;38.77;76452.22;4892726;29;20074;-91
2024/03/29 08:43:49;;;;;;;0.20;0.20;;;;;;;24.73;36.94;76581.41;4884520;29;20027;-90
2024/03/29 08:46:15;;;;;;;0.20;0.20;;;;;;;24.50;36.51;76546.44;4893889;29;20020;-90
2024/03/29 08:48:43;;;;;;;0.20;0.20;;;;;;;23.85;36.41;76474.91;4887030;29;20085;-92
2024/03/29 08:56:43;;;;;;;0.20;0.20;;;;;;;23.83;36.45;76469.09;4995925;23;20060;-93
2024/03/29 08:59:09;;;;;;;0.20;0.20;;;;;;;23.81;36.67;76463.84;4895877;29;20032;-92
2024/03/29 09:01:42;;;;;;;0.20;0.20;;;;;;;24.32;35.47;76527.53;4881012;29;20028;-91
2024/03/29 09:24:09;;;;;;;0.20;0.20;;;;;;;23.97;34.37;76486.56;5586610;23;20136;-89
2024/03/29 09:54:46;;;;;;;0.20;0.20;;;;;;;23.98;32.49;76487.16;4949237;23;20109;-91
2024/03/29 10:14:03;;;;;;;0.20;0.20;;;;;;;24.80;32.16;76584.78;5009905;23;20057;-91
2024/03/29 10:16:30;;;;;;;0.20;0.20;;;;;;;25.16;31.36;76635.50;4874156;29;20025;-91
2024/03/29 10:19:03;;;;;;;0.20;0.20;;;;;;;24.59;32.40;76559.47;4878294;29;20078;-90
2024/03/29 10:21:28;;;;;;;;;;;;;;;25.30;30.89;76646.09;4861873;29;20037;-89
2024/03/29 10:32:18;;;;;;;0.17;0.17;;;;;;;24.97;32.88;76607.50;4955194;23;20092;-91
2024/03/29 10:34:44;;;;;;;0.20;0.20;;;;;;;25.94;31.37;76719.28;4893342;29;20037;-90
2024/03/29 10:37:10;;;;;;;0.20;0.20;;;;;;;25.85;30.82;76711.28;4895188;29;20032;-89
2024/03/29 10:39:36;;;;;;;0.20;0.20;;;;;;;25.86;30.54;76710.25;4895682;29;20092;-88
2024/03/29 10:42:03;;;;;;;0.20;0.20;;;;;;;25.80;30.60;76699.56;4896100;29;20032;-90
2024/03/29 10:44:29;;;;;;;0.20;0.20;;;;;;;26.10;30.85;76741.44;4896072;29;20115;-88
2024/03/29 10:46:59;;;;;;;0.20;0.20;;;;;;;26.69;29.92;76808.00;4892253;29;20125;-91
2024/03/29 10:49:26;;;;;;;0.20;0.20;;;;;;;26.30;29.37;76764.94;4891365;29;20096;-89
2024/03/29 10:51:53;;;;;;;0.20;0.20;;;;;;;24.56;32.18;76558.72;4891306;29;20035;-91
2024/03/29 11:22:07;;;;;;;0.15;0.15;;;;;;;25.59;30.31;76681.09;5073603;28;20154;-91
2024/03/29 11:24:34;;;;;;;0.20;0.20;;;;;;;25.19;31.11;76630.03;5073147;28;20033;-92
2024/03/29 11:27:07;;;;;;;0.20;0.20;;;;;;;25.04;31.61;76606.88;5071144;28;20075;-91
2024/03/29 11:29:38;;;;;;;0.20;0.20;;;;;;;25.56;30.65;76674.63;5072795;28;20063;-90
2024/03/29 11:32:04;;;;;;;0.20;0.20;;;;;;;25.45;31.29;76661.38;5073402;28;20617;-90
2024/03/29 11:34:35;;;;;;;0.20;0.20;;;;;;;24.85;31.05;76589.63;5075895;28;20029;-90
2024/03/29 11:45:11;;;;;;;0.10;0.10;;;;;;;24.73;31.31;76576.38;5136388;23;20424;-91
2024/03/29 11:47:40;;;;;;;0.20;0.20;;;;;;;24.97;31.10;76601.25;5054821;28;20091;-90
2024/03/29 11:50:08;;;;;;;0.20;0.20;;;;;;;24.88;31.44;76598.91;5048094;28;20037;-90
2024/03/29 11:52:33;;;;;;;0.20;0.20;;;;;;;24.76;31.25;76579.38;5034987;28;20028;-91
2024/03/29 11:54:59;;;;;;;0.20;0.20;;;;;;;24.97;30.45;76609.75;5038352;28;20188;-90
2024/03/29 12:02:43;;;;;;;0.20;0.20;;;;;;;24.84;31.62;76589.03;5141526;22;20412;-91
2024/03/29 12:05:09;;;;;;;0.20;0.20;;;;;;;24.92;32.15;76595.81;5051302;28;20042;-91
2024/03/29 12:07:35;;;;;;;0.20;0.20;;;;;;;24.78;31.35;76582.38;5034235;28;20099;-91
2024/03/29 12:10:00;;;;;;;0.20;0.20;;;;;;;24.36;31.39;76535.19;5033811;28;20383;-90
2024/03/29 12:25:34;;;;;;;0.15;0.15;;;;;;;24.18;32.20;76514.09;5884570;22;20056;-89
2024/03/29 12:28:00;;;;;;;0.20;0.20;;;;;;;24.21;31.91;76519.94;5018316;28;20041;-90
2024/03/29 12:30:35;;;;;;;0.10;0.10;;;;;;;24.32;32.73;76530.34;5015452;28;20137;-90
2024/03/29 12:35:44;;;;;;;0.10;0.10;;;;;;;24.39;32.80;76538.81;5109097;22;20402;-91
2024/03/29 12:38:13;;;;;;;0.20;0.20;;;;;;;24.48;33.35;76543.41;5001469;28;20100;-92
2024/03/29 13:13:57;;;;;;;0.20;0.20;;;;;;;24.16;33.30;76514.50;5767075;23;20084;-87
2024/03/29 13:16:22;;;;;;;0.20;0.20;;;;;;;24.50;34.04;76549.25;5127433;22;20055;-91
2024/03/29 13:18:47;;;;;;;0.20;0.20;;;;;;;24.78;33.85;76578.97;4966241;28;20098;-92
2024/03/29 13:21:13;;;;;;;0.20;0.20;;;;;;;24.84;33.73;76594.69;4974663;28;20063;-89
2024/03/29 13:23:38;;;;;;;0.20;0.20;;;;;;;24.81;32.71;76588.22;4960725;28;20625;-90
2024/03/29 13:26:04;;;;;;;0.20;0.20;;;;;;;24.96;33.13;76603.47;4973878;28;20090;-90
2024/03/29 13:28:30;;;;;;;0.17;0.17;;;;;;;24.79;32.64;76583.59;4977284;28;20023;-90
2024/03/29 13:30:56;;;;;;;0.20;0.20;;;;;;;24.94;32.83;76601.06;4976996;28;20033;-92
2024/03/29 13:36:11;;;;;;;0.20;0.20;;;;;;;24.50;31.65;76549.25;5019823;23;20429;-90
2024/03/29 13:38:39;;;;;;;0.20;0.20;;;;;;;24.73;31.60;76575.75;4996141;28;20034;-90
2024/03/29 13:46:40;;;;;;;0.20;0.20;;;;;;;24.33;30.92;76528.13;5276331;22;20058;-89
2024/03/29 13:49:05;;;;;;;0.20;0.20;;;;;;;24.25;31.63;76519.69;4996925;28;20026;-90
2024/03/29 13:51:31;;;;;;;0.20;0.20;;;;;;;24.56;30.96;76550.81;4995559;28;20026;-91
2024/03/29 13:53:56;;;;;;;0.17;0.17;;;;;;;24.46;30.43;76543.81;4997689;28;20034;-91
2024/03/29 13:56:22;;;;;;;0.20;0.20;;;;;;;24.40;31.01;76537.19;4987614;28;20125;-91
2024/03/29 13:58:47;;;;;;;0.20;0.20;;;;;;;24.77;30.31;76583.41;4979108;28;20035;-90
2024/03/29 14:01:13;;;;;;;0.20;0.20;;;;;;;24.58;30.27;76558.28;4988233;28;20108;-91
2024/03/29 14:03:39;;;;;;;0.17;0.17;;;;;;;24.50;30.18;76549.25;4996415;28;20157;-90
2024/03/29 14:06:05;;;;;;;0.20;0.20;;;;;;;24.55;30.46;76551.84;4986103;28;20019;-91
2024/03/29 14:08:31;;;;;;;0.10;0.10;;;;;;;24.34;29.96;76529.94;4984004;28;20028;-92
2024/03/29 14:10:57;;;;;;;0.20;0.20;;;;;;;24.48;29.80;76549.06;4999059;28;20059;-90
2024/03/29 14:13:23;;;;;;;0.20;0.20;;;;;;;24.29;29.94;76529.56;4985724;28;20035;-91
2024/03/29 14:15:50;;;;;;;0.13;0.13;;;;;;;24.44;30.52;76542.00;4981171;28;20025;-91
2024/03/29 14:18:15;;;;;;;0.15;0.15;;;;;;;24.58;30.64;76557.69;4978267;28;20035;-92
2024/03/29 14:23:47;;;;;;;0.20;0.20;;;;;;;24.32;29.58;76527.53;5095212;23;20127;-90
2024/03/29 14:26:12;;;;;;;0.20;0.20;;;;;;;24.30;30.31;76525.13;5031020;28;20030;-89
2024/03/29 14:28:37;;;;;;;0.20;0.20;;;;;;;24.04;29.78;76494.41;5017851;28;20030;-90
2024/03/29 14:31:03;;;;;;;0.20;0.20;;;;;;;24.39;30.39;76535.38;5035278;28;20037;-91
2024/03/29 14:33:29;;;;;;;0.20;0.20;;;;;;;24.38;29.80;76540.44;5034357;28;20028;-91
2024/03/29 14:35:54;;;;;;;0.10;0.10;;;;;;;24.58;29.52;76558.28;5034851;28;20082;-90
2024/03/29 14:38:21;;;;;;;0.20;0.20;;;;;;;24.64;29.00;76564.91;5030584;28;20092;-91
2024/03/29 14:40:46;;;;;;;0.20;0.20;;;;;;;24.81;28.63;76585.41;5014735;28;20026;-90
2024/03/29 14:43:14;;;;;;;0.10;0.10;;;;;;;24.63;29.21;76563.72;5014095;28;20037;-90
2024/03/29 14:45:40;;;;;;;0.10;0.10;;;;;;;24.69;29.31;76573.75;5013431;28;20022;-89
2024/03/29 14:48:05;;;;;;;0.10;0.10;;;;;;;24.80;29.51;76589.84;5014837;28;20571;-89
2024/03/29 14:50:31;;;;;;;0.13;0.13;;;;;;;24.66;29.90;76573.59;5014343;28;20424;-90
2024/03/29 14:52:59;;;;;;;0.10;0.10;;;;;;;24.43;29.46;76545.84;5014236;28;20022;-92
2024/03/29 14:55:26;;;;;;;0.10;0.10;;;;;;;24.23;29.78;76520.09;5014766;28;20057;-91
2024/03/29 14:57:52;;;;;;;0.20;0.20;;;;;;;24.19;29.18;76511.88;5014584;28;20022;-91
2024/03/29 15:00:18;;;;;;;0.10;0.10;;;;;;;24.08;30.02;76504.28;5013962;28;20022;-91
2024/03/29 15:02:45;;;;;;;0.10;0.10;;;;;;;23.72;30.13;76462.09;5014443;28;20026;-90
2024/03/29 15:07:54;;;;;;;0.20;0.20;;;;;;;23.84;30.03;76470.28;5060543;23;20058;-89
2024/03/29 15:13:00;;;;;;;0.10;0.10;;;;;;;23.61;30.62;76446.00;5928073;23;21711;-88
2024/03/29 15:15:26;;;;;;;0.17;0.17;;;;;;;23.61;30.69;76443.78;5071846;22;20050;-90
2024/03/29 15:23:02;;;;;;;0.20;0.20;;;;;;;23.61;29.32;76449.41;5630116;22;20112;-89
2024/03/29 15:25:27;;;;;;;0.20;0.20;;;;;;;23.56;29.32;76437.16;4995682;28;20035;-89
2024/03/29 15:30:43;;;;;;;0.13;0.13;;;;;;;23.41;29.53;76417.47;5056462;23;20057;-91
2024/03/29 15:33:08;;;;;;;0.15;0.15;;;;;;;23.50;30.83;76431.13;4995280;28;20397;-88
2024/03/29 15:35:35;;;;;;;0.20;0.20;;;;;;;23.15;30.57;76391.78;5001600;28;20034;-89
2024/03/29 15:43:12;;;;;;;0.10;0.10;;;;;;;22.98;31.40;76371.94;5192032;22;20576;-88
2024/03/29 15:45:39;;;;;;;0.20;0.20;;;;;;;22.86;31.71;76360.88;5011185;28;20125;-90
2024/03/29 15:48:07;;;;;;;0.20;0.20;;;;;;;23.08;32.20;76383.97;5206619;23;20117;-92
2024/03/29 15:50:33;;;;;;;0.10;0.10;;;;;;;22.74;32.29;76343.59;4996656;28;20026;-91
2024/03/29 15:52:58;;;;;;;0.10;0.10;;;;;;;22.58;33.21;76324.94;4995004;28;20396;-92
2024/03/29 15:55:24;;;;;;;0.10;0.10;;;;;;;22.72;33.55;76344.63;4995007;28;20437;-91
2024/03/29 15:57:49;;;;;;;0.10;0.10;;;;;;;22.55;32.95;76320.72;4998901;28;20049;-92
2024/03/29 16:00:15;;;;;;;0.10;0.10;;;;;;;22.49;33.60;76311.91;5227033;22;20791;-92
2024/03/29 16:02:50;;;;;;;0.20;0.20;;;;;;;22.47;33.28;76309.47;5004320;28;20390;-90
2024/03/29 16:05:15;;;;;;;0.10;0.10;;;;;;;22.44;33.83;76305.28;4984478;28;20861;-92
2024/03/29 16:07:41;;;;;;;0.17;0.17;;;;;;;22.52;33.46;76314.28;4996143;28;20015;-92
2024/03/29 16:10:07;;;;;;;0.20;0.20;;;;;;;22.36;34.08;76301.28;4979412;28;20466;-92
2024/03/29 16:12:32;;;;;;;0.10;0.10;;;;;;;22.35;34.18;76297.84;4978275;28;20045;-92
2024/03/29 16:14:58;;;;;;;0.10;0.10;;;;;;;22.33;34.19;76301.09;4979051;28;20486;-91
2024/03/29 16:17:23;;;;;;;0.10;0.10;;;;;;;22.29;33.84;76296.28;4992751;28;20072;-91
2024/03/29 16:19:48;;;;;;;0.15;0.15;;;;;;;22.36;33.83;76298.44;4997847;28;20022;-90
2024/03/29 16:22:15;;;;;;;0.20;0.20;;;;;;;22.31;34.47;76293.03;4992255;28;20525;-91
2024/03/29 16:24:40;;;;;;;0.20;0.20;;;;;;;22.40;34.23;76306.09;4997333;28;20389;-92
2024/03/29 16:27:06;;;;;;;0.20;0.20;;;;;;;22.52;34.06;76314.28;4991774;28;20033;-90
2024/03/29 16:29:32;;;;;;;0.10;0.10;;;;;;;22.16;34.53;76277.81;4980954;28;20019;-91
2024/03/29 16:31:57;;;;;;;0.10;0.10;;;;;;;22.20;34.43;76276.97;4977581;28;20025;-90
2024/03/29 16:34:23;;;;;;;0.10;0.10;;;;;;;22.13;34.60;76274.78;4978149;28;20078;-90
2024/03/29 16:36:48;;;;;;;0.20;0.20;;;;;;;22.08;34.76;76262.53;4995389;28;20077;-89
2024/03/29 16:39:14;;;;;;;0.20;0.20;;;;;;;22.09;35.25;76266.53;4985302;28;20125;-91
2024/03/29 16:41:39;;;;;;;0.20;0.20;;;;;;;22.09;34.92;76266.53;4979523;28;20041;-90
2024/03/29 16:44:04;;;;;;;0.13;0.13;;;;;;;22.11;35.05;76272.41;4978542;28;20031;-89
2024/03/29 16:46:30;;;;;;;0.10;0.10;;;;;;;22.10;36.31;76264.91;4978723;28;20034;-90
2024/03/29 16:48:55;;;;;;;0.10;0.10;;;;;;;21.96;38.46;76248.69;4978386;28;20026;-89
2024/03/29 16:51:23;;;;;;;0.10;0.10;;;;;;;21.84;38.77;76242.69;4983858;28;20031;-89
2024/03/29 16:53:52;;;;;;;0.20;0.20;;;;;;;21.85;39.61;76238.88;4991142;28;20264;-91
2024/03/29 16:56:17;;;;;;;0.20;0.20;;;;;;;21.77;40.14;76229.22;4997853;28;20488;-90
2024/03/29 16:58:43;;;;;;;0.20;0.20;;;;;;;21.70;40.78;76223.63;4996881;28;20022;-89
2024/03/29 17:01:09;;;;;;;0.20;0.20;;;;;;;21.57;40.15;76207.97;4979064;28;20050;-89
2024/03/29 17:03:35;;;;;;;0.20;0.20;;;;;;;21.54;40.49;76204.38;4977273;28;20031;-90
2024/03/29 17:06:00;;;;;;;0.10;0.10;;;;;;;21.34;41.25;76181.50;4978157;28;20037;-90
2024/03/29 17:08:28;;;;;;;0.20;0.20;;;;;;;21.22;41.07;76167.06;4987214;28;20100;-90
2024/03/29 17:10:57;;;;;;;0.10;0.10;;;;;;;21.12;42.14;76150.00;4991841;28;20597;-91
2024/03/29 17:13:22;;;;;;;0.20;0.20;;;;;;;21.01;42.61;76142.41;4976944;28;20031;-91
2024/03/29 17:15:48;;;;;;;0.10;0.10;;;;;;;20.80;43.31;76117.75;4992992;28;20017;-90
2024/03/29 17:18:14;;;;;;;0.10;0.10;;;;;;;20.63;43.64;76097.31;4992291;28;20544;-91
2024/03/29 17:20:39;;;;;;;0.20;0.20;;;;;;;20.54;44.44;76086.47;4977499;28;20034;-91
2024/03/29 17:23:05;;;;;;;0.20;0.20;;;;;;;20.32;44.89;76058.38;4995521;28;20027;-90
2024/03/29 17:25:30;;;;;;;0.20;0.20;;;;;;;20.29;44.81;76059.78;4984187;28;20122;-92
2024/03/29 17:27:56;;;;;;;0.20;0.20;;;;;;;20.10;43.88;76031.94;4976721;28;20030;-92
2024/03/29 17:30:21;;;;;;;0.20;0.20;;;;;;;20.24;44.17;76051.59;4976547;28;20053;-92
2024/03/29 17:32:46;;;;;;;0.20;0.20;;;;;;;20.08;45.23;76029.53;4976478;28;20026;-91
2024/03/29 17:35:12;;;;;;;0.20;0.20;;;;;;;19.84;45.19;76007.50;4985570;28;20109;-91
2024/03/29 17:37:40;;;;;;;0.20;0.20;;;;;;;19.93;45.38;76012.13;4986741;28;20037;-92
2024/03/29 17:40:06;;;;;;;0.20;0.20;;;;;;;19.83;45.26;76006.31;4991756;28;20033;-91
2024/03/29 17:42:31;;;;;;;0.20;0.20;;;;;;;19.74;45.94;75989.88;4996053;28;20608;-91
2024/03/29 17:44:57;;;;;;;0.20;0.20;;;;;;;19.62;46.79;75975.47;4995860;28;20042;-92
2024/03/29 17:47:25;;;;;;;0.20;0.20;;;;;;;19.53;46.89;75964.59;4995482;28;20029;-91
2024/03/29 17:49:51;;;;;;;0.20;0.20;;;;;;;19.49;46.92;75965.41;4981066;28;20084;-91
2024/03/29 17:52:17;;;;;;;0.20;0.20;;;;;;;19.42;46.76;75957.59;4976416;28;20477;-90
2024/03/29 17:54:42;;;;;;;0.20;0.20;;;;;;;19.31;47.29;75944.38;4979139;28;20041;-91
2024/03/29 17:57:08;;;;;;;0.20;0.20;;;;;;;19.25;48.26;75937.78;4994938;28;20014;-92
2024/03/29 17:59:33;;;;;;;0.20;0.20;;;;;;;19.16;47.71;75924.16;4990088;28;20050;-91
2024/03/29 18:01:59;;;;;;;0.20;0.20;;;;;;;19.02;48.51;75910.16;4995209;28;20030;-91
2024/03/29 18:04:24;;;;;;;0.20;0.20;;;;;;;18.97;47.96;75904.16;4994615;28;20049;-90
2024/03/29 18:06:58;;;;;;;0.20;0.20;;;;;;;19.08;46.95;75915.16;4994237;28;20018;-89
2024/03/29 18:17:11;;;;;;;0.20;0.20;;;;;;;18.49;49.17;75844.88;5104590;23;20076;-89
2024/03/29 18:19:36;;;;;;;0.20;0.20;;;;;;;18.31;48.55;75824.44;5049781;28;20038;-90
2024/03/29 18:22:03;;;;;;;0.20;0.20;;;;;;;18.38;48.62;75831.66;5034369;28;20499;-90
2024/03/29 18:24:30;;;;;;;0.20;0.20;;;;;;;18.37;48.81;75830.44;5039978;28;20070;-91
